sensor_id;sensor_type;location;lat;lon;timestamp;pressure;altitude;pressure_sealevel;temperature;humidity
41654;BME280;68687;52.030;7.110;2023-06-22T00:00:57;101196.38;;;19.52;75.91
41654;BME280;68687;52.030;7.110;2023-06-22T00:03:24;101197.97;;;19.59;75.52
41654;BME280;68687;52.030;7.110;2023-06-22T00:05:50;101188.50;;;19.43;75.75
41654;BME280;68687;52.030;7.110;2023-06-22T00:08:16;101184.72;;;19.44;75.76
41654;BME280;68687;52.030;7.110;2023-06-22T00:10:42;101173.91;;;19.38;76.65
41654;BME280;68687;52.030;7.110;2023-06-22T00:13:08;101179.22;;;19.33;76.27
41654;BME280;68687;52.030;7.110;2023-06-22T00:15:35;101176.19;;;19.23;77.17
41654;BME280;68687;52.030;7.110;2023-06-22T00:18:00;101176.06;;;19.18;77.27
41654;BME280;68687;52.030;7.110;2023-06-22T00:20:27;101183.06;;;19.07;77.93
41654;BME280;68687;52.030;7.110;2023-06-22T00:23:10;101178.84;;;19.11;77.69
41654;BME280;68687;52.030;7.110;2023-06-22T00:25:38;101177.47;;;19.02;78.03
41654;BME280;68687;52.030;7.110;2023-06-22T00:28:09;101173.53;;;19.16;77.25
41654;BME280;68687;52.030;7.110;2023-06-22T00:30:35;101171.44;;;19.18;77.62
41654;BME280;68687;52.030;7.110;2023-06-22T00:33:00;101162.38;;;19.24;77.26
41654;BME280;68687;52.030;7.110;2023-06-22T00:35:28;101159.56;;;19.12;77.81
41654;BME280;68687;52.030;7.110;2023-06-22T00:37:58;101156.00;;;19.12;77.79
41654;BME280;68687;52.030;7.110;2023-06-22T00:40:25;101157.97;;;19.05;77.90
41654;BME280;68687;52.030;7.110;2023-06-22T00:42:57;101156.69;;;19.07;77.57
41654;BME280;68687;52.030;7.110;2023-06-22T00:45:24;101162.41;;;18.81;79.35
41654;BME280;68687;52.030;7.110;2023-06-22T00:47:53;101152.69;;;18.92;78.96
41654;BME280;68687;52.030;7.110;2023-06-22T00:50:21;101157.06;;;18.93;78.78
41654;BME280;68687;52.030;7.110;2023-06-22T00:52:52;101160.63;;;18.93;78.79
41654;BME280;68687;52.030;7.110;2023-06-22T00:55:19;101159.78;;;18.93;79.18
41654;BME280;68687;52.030;7.110;2023-06-22T00:57:47;101167.63;;;18.82;79.78
41654;BME280;68687;52.030;7.110;2023-06-22T01:00:14;101149.19;;;18.84;79.13
41654;BME280;68687;52.030;7.110;2023-06-22T01:02:41;101155.38;;;18.73;80.21
41654;BME280;68687;52.030;7.110;2023-06-22T01:05:07;101160.88;;;18.67;80.92
41654;BME280;68687;52.030;7.110;2023-06-22T01:07:39;101156.50;;;18.66;80.73
41654;BME280;68687;52.030;7.110;2023-06-22T01:10:18;101160.88;;;18.67;80.95
41654;BME280;68687;52.030;7.110;2023-06-22T01:12:52;101150.16;;;18.72;80.85
41654;BME280;68687;52.030;7.110;2023-06-22T01:15:34;101159.22;;;18.59;80.95
41654;BME280;68687;52.030;7.110;2023-06-22T01:18:04;101159.00;;;18.61;81.69
41654;BME280;68687;52.030;7.110;2023-06-22T01:20:30;101140.06;;;18.54;82.26
41654;BME280;68687;52.030;7.110;2023-06-22T01:23:05;101143.81;;;18.53;81.88
41654;BME280;68687;52.030;7.110;2023-06-22T01:25:38;101141.91;;;18.35;83.27
41654;BME280;68687;52.030;7.110;2023-06-22T01:28:24;101141.28;;;18.33;84.18
41654;BME280;68687;52.030;7.110;2023-06-22T01:30:51;101141.03;;;18.35;83.90
41654;BME280;68687;52.030;7.110;2023-06-22T01:33:29;101147.59;;;18.27;83.40
41654;BME280;68687;52.030;7.110;2023-06-22T01:35:56;101149.31;;;18.21;83.72
41654;BME280;68687;52.030;7.110;2023-06-22T01:38:21;101151.31;;;18.33;83.50
41654;BME280;68687;52.030;7.110;2023-06-22T01:40:48;101150.06;;;18.10;85.10
41654;BME280;68687;52.030;7.110;2023-06-22T01:43:14;101146.59;;;18.21;84.28
41654;BME280;68687;52.030;7.110;2023-06-22T01:45:45;101139.13;;;18.17;84.12
41654;BME280;68687;52.030;7.110;2023-06-22T01:48:11;101142.06;;;18.15;83.74
41654;BME280;68687;52.030;7.110;2023-06-22T01:50:36;101143.66;;;18.23;84.81
41654;BME280;68687;52.030;7.110;2023-06-22T01:53:02;101147.22;;;18.23;83.97
41654;BME280;68687;52.030;7.110;2023-06-22T01:55:27;101136.41;;;18.17;84.27
41654;BME280;68687;52.030;7.110;2023-06-22T01:57:52;101144.06;;;18.27;84.54
41654;BME280;68687;52.030;7.110;2023-06-22T02:00:25;101135.06;;;18.26;83.58
41654;BME280;68687;52.030;7.110;2023-06-22T02:03:03;101144.06;;;18.27;84.11
41654;BME280;68687;52.030;7.110;2023-06-22T02:05:34;101144.44;;;18.30;83.59
41654;BME280;68687;52.030;7.110;2023-06-22T02:08:18;101137.78;;;18.26;83.21
41654;BME280;68687;52.030;7.110;2023-06-22T02:10:46;101134.00;;;18.27;83.50
41654;BME280;68687;52.030;7.110;2023-06-22T02:13:13;101133.53;;;18.12;84.46
41654;BME280;68687;52.030;7.110;2023-06-22T02:15:45;101137.06;;;18.12;84.51
41654;BME280;68687;52.030;7.110;2023-06-22T02:18:15;101139.59;;;18.07;84.54
41654;BME280;68687;52.030;7.110;2023-06-22T02:20:40;101142.00;;;18.22;83.81
41654;BME280;68687;52.030;7.110;2023-06-22T02:23:06;101139.00;;;18.30;84.00
41654;BME280;68687;52.030;7.110;2023-06-22T02:25:33;101139.44;;;18.27;84.52
41654;BME280;68687;52.030;7.110;2023-06-22T02:27:58;101135.44;;;18.30;84.40
41654;BME280;68687;52.030;7.110;2023-06-22T02:30:24;101139.66;;;18.26;85.11
41654;BME280;68687;52.030;7.110;2023-06-22T02:32:49;101137.06;;;18.12;85.67
41654;BME280;68687;52.030;7.110;2023-06-22T02:35:14;101134.13;;;18.14;85.29
41654;BME280;68687;52.030;7.110;2023-06-22T02:37:40;101131.97;;;18.22;84.80
41654;BME280;68687;52.030;7.110;2023-06-22T02:40:08;101141.00;;;18.16;85.07
41654;BME280;68687;52.030;7.110;2023-06-22T02:42:36;101127.19;;;18.18;85.08
41654;BME280;68687;52.030;7.110;2023-06-22T02:45:02;101126.66;;;18.09;85.40
41654;BME280;68687;52.030;7.110;2023-06-22T02:47:28;101125.50;;;17.92;86.54
41654;BME280;68687;52.030;7.110;2023-06-22T02:49:53;101127.44;;;18.16;85.63
41654;BME280;68687;52.030;7.110;2023-06-22T02:52:18;101118.66;;;18.14;85.40
41654;BME280;68687;52.030;7.110;2023-06-22T02:54:44;101128.94;;;18.12;85.67
41654;BME280;68687;52.030;7.110;2023-06-22T02:57:11;101125.00;;;18.08;86.15
41654;BME280;68687;52.030;7.110;2023-06-22T02:59:41;101128.34;;;18.04;86.11
41654;BME280;68687;52.030;7.110;2023-06-22T03:02:08;101127.34;;;17.98;86.34
41654;BME280;68687;52.030;7.110;2023-06-22T03:04:34;101112.66;;;17.81;87.20
41654;BME280;68687;52.030;7.110;2023-06-22T03:07:02;101120.31;;;17.90;86.61
41654;BME280;68687;52.030;7.110;2023-06-22T03:09:28;101114.72;;;17.79;86.94
41654;BME280;68687;52.030;7.110;2023-06-22T03:11:54;101121.13;;;17.91;86.99
41654;BME280;68687;52.030;7.110;2023-06-22T03:14:20;101116.81;;;17.83;86.50
41654;BME280;68687;52.030;7.110;2023-06-22T03:16:48;101125.38;;;17.80;87.10
41654;BME280;68687;52.030;7.110;2023-06-22T03:19:13;101117.72;;;17.64;87.96
41654;BME280;68687;52.030;7.110;2023-06-22T03:21:39;101118.47;;;17.84;86.78
41654;BME280;68687;52.030;7.110;2023-06-22T03:24:06;101128.94;;;17.81;87.40
41654;BME280;68687;52.030;7.110;2023-06-22T03:26:31;101123.91;;;17.84;86.68
41654;BME280;68687;52.030;7.110;2023-06-22T03:28:57;101122.78;;;17.92;86.44
41654;BME280;68687;52.030;7.110;2023-06-22T03:31:22;101113.88;;;17.85;86.47
41654;BME280;68687;52.030;7.110;2023-06-22T03:33:51;101120.34;;;17.84;86.88
41654;BME280;68687;52.030;7.110;2023-06-22T03:36:19;101119.31;;;17.78;86.70
41654;BME280;68687;52.030;7.110;2023-06-22T03:38:46;101116.06;;;17.63;87.98
41654;BME280;68687;52.030;7.110;2023-06-22T03:41:11;101113.75;;;17.67;87.88
41654;BME280;68687;52.030;7.110;2023-06-22T03:43:36;101112.34;;;17.57;87.96
41654;BME280;68687;52.030;7.110;2023-06-22T03:46:02;101113.56;;;17.61;87.99
41654;BME280;68687;52.030;7.110;2023-06-22T03:48:27;101105.41;;;17.68;86.87
41654;BME280;68687;52.030;7.110;2023-06-22T03:50:52;101113.34;;;17.70;87.06
41654;BME280;68687;52.030;7.110;2023-06-22T03:53:18;101112.22;;;17.77;87.16
41654;BME280;68687;52.030;7.110;2023-06-22T03:55:52;101103.53;;;17.69;87.44
41654;BME280;68687;52.030;7.110;2023-06-22T03:58:19;101117.66;;;17.77;87.39
41654;BME280;68687;52.030;7.110;2023-06-22T04:00:52;101106.03;;;17.64;87.49
41654;BME280;68687;52.030;7.110;2023-06-22T04:03:18;101110.31;;;17.46;88.79
41654;BME280;68687;52.030;7.110;2023-06-22T04:05:44;101102.13;;;17.53;88.79
41654;BME280;68687;52.030;7.110;2023-06-22T04:08:13;101099.38;;;17.59;88.62
41654;BME280;68687;52.030;7.110;2023-06-22T04:10:39;101103.09;;;17.65;88.44
41654;BME280;68687;52.030;7.110;2023-06-22T04:13:04;101099.00;;;17.49;89.43
41654;BME280;68687;52.030;7.110;2023-06-22T04:15:42;101099.03;;;17.43;89.43
41654;BME280;68687;52.030;7.110;2023-06-22T04:18:10;101101.94;;;17.48;89.19
41654;BME280;68687;52.030;7.110;2023-06-22T04:20:36;101104.81;;;17.53;89.28
41654;BME280;68687;52.030;7.110;2023-06-22T04:23:04;101102.72;;;17.61;88.88
41654;BME280;68687;52.030;7.110;2023-06-22T04:25:29;101089.81;;;17.50;89.15
41654;BME280;68687;52.030;7.110;2023-06-22T04:27:55;101094.44;;;17.43;89.96
41654;BME280;68687;52.030;7.110;2023-06-22T04:30:26;101095.19;;;17.64;88.89
41654;BME280;68687;52.030;7.110;2023-06-22T04:32:51;101088.09;;;17.63;89.40
41654;BME280;68687;52.030;7.110;2023-06-22T04:35:23;101095.22;;;17.57;89.65
41654;BME280;68687;52.030;7.110;2023-06-22T04:37:49;101100.75;;;17.82;88.95
41654;BME280;68687;52.030;7.110;2023-06-22T04:40:15;101095.34;;;18.00;87.54
41654;BME280;68687;52.030;7.110;2023-06-22T04:42:40;101088.09;;;18.19;86.73
41654;BME280;68687;52.030;7.110;2023-06-22T04:45:18;101073.97;;;18.10;87.07
41654;BME280;68687;52.030;7.110;2023-06-22T04:47:43;101090.75;;;18.26;87.19
41654;BME280;68687;52.030;7.110;2023-06-22T04:50:11;101093.38;;;18.39;86.65
41654;BME280;68687;52.030;7.110;2023-06-22T04:52:36;101086.72;;;18.53;85.69
41654;BME280;68687;52.030;7.110;2023-06-22T04:55:08;101089.81;;;18.57;86.00
41654;BME280;68687;52.030;7.110;2023-06-22T04:57:33;101083.94;;;18.60;86.38
41654;BME280;68687;52.030;7.110;2023-06-22T04:59:59;101084.78;;;18.60;86.07
41654;BME280;68687;52.030;7.110;2023-06-22T05:02:38;101085.91;;;18.52;86.34
41654;BME280;68687;52.030;7.110;2023-06-22T05:05:04;101085.22;;;18.57;86.30
41654;BME280;68687;52.030;7.110;2023-06-22T05:07:36;101080.25;;;18.54;86.51
41654;BME280;68687;52.030;7.110;2023-06-22T05:10:02;101083.84;;;18.73;85.50
41654;BME280;68687;52.030;7.110;2023-06-22T05:12:33;101079.84;;;18.75;85.53
41654;BME280;68687;52.030;7.110;2023-06-22T05:14:59;101079.97;;;18.80;85.94
41654;BME280;68687;52.030;7.110;2023-06-22T05:17:26;101085.28;;;18.94;85.21
41654;BME280;68687;52.030;7.110;2023-06-22T05:19:51;101084.38;;;19.00;84.96
41654;BME280;68687;52.030;7.110;2023-06-22T05:22:20;101085.13;;;19.07;84.83
41654;BME280;68687;52.030;7.110;2023-06-22T05:24:46;101088.28;;;19.22;84.07
41654;BME280;68687;52.030;7.110;2023-06-22T05:27:14;101078.75;;;19.13;84.10
41654;BME280;68687;52.030;7.110;2023-06-22T05:29:40;101091.41;;;19.56;83.10
41654;BME280;68687;52.030;7.110;2023-06-22T05:32:05;101093.25;;;19.73;82.40
41654;BME280;68687;52.030;7.110;2023-06-22T05:34:31;101096.47;;;19.82;81.41
41654;BME280;68687;52.030;7.110;2023-06-22T05:36:56;101097.66;;;19.86;80.75
41654;BME280;68687;52.030;7.110;2023-06-22T05:39:30;101097.75;;;19.80;80.54
41654;BME280;68687;52.030;7.110;2023-06-22T05:41:55;101096.16;;;20.02;79.32
41654;BME280;68687;52.030;7.110;2023-06-22T05:44:20;101086.72;;;20.28;79.17
41654;BME280;68687;52.030;7.110;2023-06-22T05:46:52;101087.88;;;20.32;78.22
41654;BME280;68687;52.030;7.110;2023-06-22T05:49:17;101080.78;;;20.31;78.09
41654;BME280;68687;52.030;7.110;2023-06-22T05:51:42;101076.06;;;20.61;77.17
41654;BME280;68687;52.030;7.110;2023-06-22T05:54:11;101075.72;;;20.58;77.24
41654;BME280;68687;52.030;7.110;2023-06-22T05:56:38;101083.75;;;20.64;77.22
41654;BME280;68687;52.030;7.110;2023-06-22T05:59:04;101082.78;;;20.24;78.00
41654;BME280;68687;52.030;7.110;2023-06-22T06:01:29;101070.00;;;20.59;77.17
41654;BME280;68687;52.030;7.110;2023-06-22T06:03:56;101077.69;;;20.51;77.14
41654;BME280;68687;52.030;7.110;2023-06-22T06:06:21;101093.59;;;20.65;76.87
41654;BME280;68687;52.030;7.110;2023-06-22T06:08:47;101097.13;;;20.78;76.97
41654;BME280;68687;52.030;7.110;2023-06-22T06:11:13;101096.75;;;20.97;75.77
41654;BME280;68687;52.030;7.110;2023-06-22T06:13:41;101098.53;;;20.92;75.95
41654;BME280;68687;52.030;7.110;2023-06-22T06:16:06;101099.84;;;20.78;76.13
41654;BME280;68687;52.030;7.110;2023-06-22T06:18:34;101094.53;;;20.83;76.98
41654;BME280;68687;52.030;7.110;2023-06-22T06:21:02;101090.94;;;20.94;76.27
41654;BME280;68687;52.030;7.110;2023-06-22T06:23:31;101107.03;;;21.07;75.14
41654;BME280;68687;52.030;7.110;2023-06-22T06:25:56;101100.72;;;21.18;75.03
41654;BME280;68687;52.030;7.110;2023-06-22T06:28:28;101101.22;;;21.15;75.35
41654;BME280;68687;52.030;7.110;2023-06-22T06:30:54;101093.91;;;20.81;75.81
41654;BME280;68687;52.030;7.110;2023-06-22T06:33:19;101093.56;;;20.77;76.69
41654;BME280;68687;52.030;7.110;2023-06-22T06:35:46;101088.47;;;20.81;76.42
41654;BME280;68687;52.030;7.110;2023-06-22T06:38:14;101086.09;;;20.73;77.06
41654;BME280;68687;52.030;7.110;2023-06-22T06:40:39;101092.75;;;20.77;76.17
41654;BME280;68687;52.030;7.110;2023-06-22T06:43:04;101091.09;;;20.87;75.85
41654;BME280;68687;52.030;7.110;2023-06-22T06:45:30;101089.38;;;20.98;75.25
41654;BME280;68687;52.030;7.110;2023-06-22T06:47:58;101088.97;;;21.18;75.53
41654;BME280;68687;52.030;7.110;2023-06-22T06:50:23;101088.63;;;21.26;75.44
41654;BME280;68687;52.030;7.110;2023-06-22T06:52:48;101091.19;;;20.81;75.83
41654;BME280;68687;52.030;7.110;2023-06-22T06:55:21;101092.19;;;21.15;75.86
41654;BME280;68687;52.030;7.110;2023-06-22T06:57:49;101091.16;;;21.04;75.85
41654;BME280;68687;52.030;7.110;2023-06-22T07:00:15;101098.81;;;21.19;75.14
41654;BME280;68687;52.030;7.110;2023-06-22T07:02:42;101094.41;;;21.29;74.80
41654;BME280;68687;52.030;7.110;2023-06-22T07:05:11;101094.81;;;21.50;74.22
41654;BME280;68687;52.030;7.110;2023-06-22T07:07:37;101090.53;;;21.54;74.28
41654;BME280;68687;52.030;7.110;2023-06-22T07:10:04;101086.25;;;21.18;74.84
41654;BME280;68687;52.030;7.110;2023-06-22T07:12:30;101080.09;;;21.51;74.07
41654;BME280;68687;52.030;7.110;2023-06-22T07:15:18;101076.47;;;21.34;74.64
41654;BME280;68687;52.030;7.110;2023-06-22T07:17:46;101077.59;;;21.49;74.42
41654;BME280;68687;52.030;7.110;2023-06-22T07:20:15;101068.50;;;21.44;74.29
41654;BME280;68687;52.030;7.110;2023-06-22T07:22:42;101071.81;;;21.46;74.09
41654;BME280;68687;52.030;7.110;2023-06-22T07:25:09;101073.31;;;21.53;73.73
41654;BME280;68687;52.030;7.110;2023-06-22T07:27:46;101070.34;;;21.26;75.03
41654;BME280;68687;52.030;7.110;2023-06-22T07:30:21;101067.69;;;21.32;74.53
41654;BME280;68687;52.030;7.110;2023-06-22T07:32:49;101063.53;;;21.41;73.74
41654;BME280;68687;52.030;7.110;2023-06-22T07:35:17;101067.88;;;21.70;72.95
41654;BME280;68687;52.030;7.110;2023-06-22T07:37:42;101071.03;;;21.79;72.55
41654;BME280;68687;52.030;7.110;2023-06-22T07:40:08;101071.44;;;21.71;72.38
41654;BME280;68687;52.030;7.110;2023-06-22T07:42:35;101078.22;;;21.68;72.68
41654;BME280;68687;52.030;7.110;2023-06-22T07:45:03;101074.50;;;21.74;72.37
41654;BME280;68687;52.030;7.110;2023-06-22T07:47:29;101075.00;;;21.71;72.70
41654;BME280;68687;52.030;7.110;2023-06-22T07:50:01;101072.72;;;21.97;72.48
41654;BME280;68687;52.030;7.110;2023-06-22T07:52:28;101078.13;;;22.08;72.09
41654;BME280;68687;52.030;7.110;2023-06-22T07:54:53;101070.88;;;21.85;73.46
41654;BME280;68687;52.030;7.110;2023-06-22T07:57:19;101077.13;;;22.14;71.94
41654;BME280;68687;52.030;7.110;2023-06-22T07:59:45;101072.72;;;21.97;71.96
41654;BME280;68687;52.030;7.110;2023-06-22T08:02:10;101070.28;;;21.83;71.77
41654;BME280;68687;52.030;7.110;2023-06-22T08:04:39;101057.06;;;21.92;72.09
41654;BME280;68687;52.030;7.110;2023-06-22T08:07:06;101061.13;;;22.06;72.18
41654;BME280;68687;52.030;7.110;2023-06-22T08:09:32;101060.69;;;21.98;72.35
41654;BME280;68687;52.030;7.110;2023-06-22T08:11:58;101048.09;;;21.80;72.25
41654;BME280;68687;52.030;7.110;2023-06-22T08:14:25;101057.69;;;21.82;72.75
41654;BME280;68687;52.030;7.110;2023-06-22T08:16:54;101043.97;;;22.11;72.22
41654;BME280;68687;52.030;7.110;2023-06-22T08:19:22;101053.00;;;22.11;72.56
41654;BME280;68687;52.030;7.110;2023-06-22T08:21:47;101056.56;;;22.12;72.35
41654;BME280;68687;52.030;7.110;2023-06-22T08:24:13;101055.16;;;22.26;71.72
41654;BME280;68687;52.030;7.110;2023-06-22T08:26:38;101051.19;;;22.17;71.75
41654;BME280;68687;52.030;7.110;2023-06-22T08:29:04;101049.78;;;22.14;72.37
41654;BME280;68687;52.030;7.110;2023-06-22T08:31:30;101048.69;;;21.99;72.39
41654;BME280;68687;52.030;7.110;2023-06-22T08:33:55;101045.69;;;21.83;72.93
41654;BME280;68687;52.030;7.110;2023-06-22T08:36:23;101045.72;;;22.17;72.43
41654;BME280;68687;52.030;7.110;2023-06-22T08:38:48;101032.41;;;22.42;71.54
41654;BME280;68687;52.030;7.110;2023-06-22T08:41:16;101027.41;;;22.56;72.14
41654;BME280;68687;52.030;7.110;2023-06-22T08:43:42;101010.09;;;22.72;71.28
41654;BME280;68687;52.030;7.110;2023-06-22T08:46:18;101006.53;;;22.72;71.29
41654;BME280;68687;52.030;7.110;2023-06-22T08:48:47;101006.75;;;22.87;69.38
41654;BME280;68687;52.030;7.110;2023-06-22T08:51:12;101004.41;;;22.74;69.92
41654;BME280;68687;52.030;7.110;2023-06-22T08:53:41;100995.75;;;23.04;69.58
41654;BME280;68687;52.030;7.110;2023-06-22T08:56:17;100989.53;;;23.13;69.92
41654;BME280;68687;52.030;7.110;2023-06-22T08:58:43;100995.53;;;23.10;68.27
41654;BME280;68687;52.030;7.110;2023-06-22T09:01:14;101002.31;;;22.81;68.60
41654;BME280;68687;52.030;7.110;2023-06-22T09:03:40;100984.53;;;23.05;68.20
41654;BME280;68687;52.030;7.110;2023-06-22T09:06:09;100977.81;;;23.18;68.02
41654;BME280;68687;52.030;7.110;2023-06-22T09:08:35;100983.84;;;23.20;67.57
41654;BME280;68687;52.030;7.110;2023-06-22T09:11:01;100984.69;;;23.21;67.77
41654;BME280;68687;52.030;7.110;2023-06-22T09:13:29;100980.91;;;23.27;68.55
41654;BME280;68687;52.030;7.110;2023-06-22T09:15:58;100978.78;;;23.34;67.86
41654;BME280;68687;52.030;7.110;2023-06-22T09:18:23;100971.47;;;23.44;67.71
41654;BME280;68687;52.030;7.110;2023-06-22T09:20:48;100968.66;;;23.61;66.78
41654;BME280;68687;52.030;7.110;2023-06-22T09:23:20;100959.13;;;23.69;66.97
41654;BME280;68687;52.030;7.110;2023-06-22T09:25:45;100968.03;;;23.86;66.71
41654;BME280;68687;52.030;7.110;2023-06-22T09:28:13;100957.22;;;23.74;66.79
41654;BME280;68687;52.030;7.110;2023-06-22T09:30:38;100956.78;;;23.88;66.42
41654;BME280;68687;52.030;7.110;2023-06-22T09:33:06;100959.03;;;23.96;66.70
41654;BME280;68687;52.030;7.110;2023-06-22T09:35:31;100957.91;;;23.92;66.00
41654;BME280;68687;52.030;7.110;2023-06-22T09:37:57;100960.69;;;23.97;65.76
41654;BME280;68687;52.030;7.110;2023-06-22T09:40:22;100960.69;;;23.97;64.79
41654;BME280;68687;52.030;7.110;2023-06-22T09:42:47;100976.97;;;24.14;65.06
41654;BME280;68687;52.030;7.110;2023-06-22T09:45:19;100978.28;;;24.06;64.72
41654;BME280;68687;52.030;7.110;2023-06-22T09:47:44;100978.28;;;24.06;65.22
41654;BME280;68687;52.030;7.110;2023-06-22T09:50:10;100978.34;;;23.74;65.15
41654;BME280;68687;52.030;7.110;2023-06-22T09:52:38;100972.41;;;23.87;65.35
41654;BME280;68687;52.030;7.110;2023-06-22T09:55:03;100973.78;;;23.85;64.62
41654;BME280;68687;52.030;7.110;2023-06-22T09:57:29;100973.56;;;23.96;65.11
41654;BME280;68687;52.030;7.110;2023-06-22T09:59:55;100964.53;;;24.01;64.69
41654;BME280;68687;52.030;7.110;2023-06-22T10:02:27;100970.81;;;23.96;65.23
41654;BME280;68687;52.030;7.110;2023-06-22T10:04:52;100970.28;;;23.99;64.82
41654;BME280;68687;52.030;7.110;2023-06-22T10:07:17;100961.75;;;23.91;64.33
41654;BME280;68687;52.030;7.110;2023-06-22T10:09:43;100951.38;;;23.98;64.47
41654;BME280;68687;52.030;7.110;2023-06-22T10:12:11;100943.53;;;24.17;64.78
41654;BME280;68687;52.030;7.110;2023-06-22T10:14:36;100943.28;;;24.23;63.42
41654;BME280;68687;52.030;7.110;2023-06-22T10:17:02;100934.09;;;24.45;63.14
41654;BME280;68687;52.030;7.110;2023-06-22T10:19:30;100941.34;;;24.71;63.14
41654;BME280;68687;52.030;7.110;2023-06-22T10:21:55;100942.19;;;24.87;62.37
41654;BME280;68687;52.030;7.110;2023-06-22T10:24:23;100941.84;;;24.63;61.65
41654;BME280;68687;52.030;7.110;2023-06-22T10:26:49;100944.63;;;24.68;62.45
41654;BME280;68687;52.030;7.110;2023-06-22T10:29:14;100947.91;;;24.70;63.33
41654;BME280;68687;52.030;7.110;2023-06-22T10:31:42;100955.53;;;24.58;62.51
41654;BME280;68687;52.030;7.110;2023-06-22T10:34:08;100951.78;;;24.79;62.69
41654;BME280;68687;52.030;7.110;2023-06-22T10:36:33;100940.16;;;24.52;62.58
41654;BME280;68687;52.030;7.110;2023-06-22T10:38:58;100944.06;;;24.66;62.61
41654;BME280;68687;52.030;7.110;2023-06-22T10:41:24;100947.38;;;24.73;63.18
41654;BME280;68687;52.030;7.110;2023-06-22T10:43:49;100943.47;;;24.54;64.26
41654;BME280;68687;52.030;7.110;2023-06-22T10:46:18;100947.31;;;24.63;63.17
41654;BME280;68687;52.030;7.110;2023-06-22T10:48:43;100947.50;;;24.36;63.32
41654;BME280;68687;52.030;7.110;2023-06-22T10:51:08;100951.94;;;24.47;62.76
41654;BME280;68687;52.030;7.110;2023-06-22T10:53:33;100939.47;;;24.24;63.47
41654;BME280;68687;52.030;7.110;2023-06-22T10:55:59;100936.75;;;24.29;64.12
41654;BME280;68687;52.030;7.110;2023-06-22T10:58:24;100933.53;;;24.43;63.03
41654;BME280;68687;52.030;7.110;2023-06-22T11:00:50;100934.09;;;24.40;63.79
41654;BME280;68687;52.030;7.110;2023-06-22T11:03:18;100932.44;;;24.44;63.48
41654;BME280;68687;52.030;7.110;2023-06-22T11:05:43;100920.22;;;24.19;63.83
41654;BME280;68687;52.030;7.110;2023-06-22T11:08:09;100910.59;;;24.12;63.58
41654;BME280;68687;52.030;7.110;2023-06-22T11:10:37;100906.50;;;24.14;64.39
41654;BME280;68687;52.030;7.110;2023-06-22T11:13:02;100901.59;;;24.21;64.59
41654;BME280;68687;52.030;7.110;2023-06-22T11:15:29;100884.88;;;24.23;64.92
41654;BME280;68687;52.030;7.110;2023-06-22T11:17:54;100881.84;;;24.24;65.02
41654;BME280;68687;52.030;7.110;2023-06-22T11:20:19;100876.34;;;24.19;65.52
41654;BME280;68687;52.030;7.110;2023-06-22T11:22:45;100870.97;;;24.40;64.66
41654;BME280;68687;52.030;7.110;2023-06-22T11:25:10;100881.41;;;24.43;64.66
41654;BME280;68687;52.030;7.110;2023-06-22T11:27:37;100883.88;;;24.39;64.06
41654;BME280;68687;52.030;7.110;2023-06-22T11:30:08;100884.91;;;24.28;64.08
41654;BME280;68687;52.030;7.110;2023-06-22T11:32:34;100882.19;;;24.33;64.29
41654;BME280;68687;52.030;7.110;2023-06-22T11:35:03;100875.31;;;24.35;64.08
41654;BME280;68687;52.030;7.110;2023-06-22T11:37:28;100884.94;;;24.33;63.65
41654;BME280;68687;52.030;7.110;2023-06-22T11:39:53;100879.56;;;24.06;64.63
41654;BME280;68687;52.030;7.110;2023-06-22T11:42:20;100883.47;;;24.20;64.29
41654;BME280;68687;52.030;7.110;2023-06-22T11:44:46;100884.38;;;24.31;64.59
41654;BME280;68687;52.030;7.110;2023-06-22T11:47:12;100880.19;;;24.23;65.07
41654;BME280;68687;52.030;7.110;2023-06-22T11:49:41;100882.94;;;24.23;65.25
41654;BME280;68687;52.030;7.110;2023-06-22T11:52:06;100884.03;;;24.17;65.12
41654;BME280;68687;52.030;7.110;2023-06-22T11:54:44;100877.19;;;24.25;65.20
41654;BME280;68687;52.030;7.110;2023-06-22T11:57:12;100880.84;;;23.83;65.72
41654;BME280;68687;52.030;7.110;2023-06-22T11:59:37;100883.38;;;24.00;65.27
41654;BME280;68687;52.030;7.110;2023-06-22T12:02:03;100877.91;;;24.00;65.41
41654;BME280;68687;52.030;7.110;2023-06-22T12:04:33;100886.13;;;24.05;66.13
41654;BME280;68687;52.030;7.110;2023-06-22T12:06:59;100881.91;;;23.82;65.82
41654;BME280;68687;52.030;7.110;2023-06-22T12:09:24;100875.16;;;24.05;66.23
41654;BME280;68687;52.030;7.110;2023-06-22T12:11:49;100872.13;;;23.96;66.81
41654;BME280;68687;52.030;7.110;2023-06-22T12:14:18;100872.81;;;23.77;66.44
41654;BME280;68687;52.030;7.110;2023-06-22T12:16:43;100872.28;;;23.80;66.68
41654;BME280;68687;52.030;7.110;2023-06-22T12:19:09;100874.75;;;23.76;66.98
41654;BME280;68687;52.030;7.110;2023-06-22T12:21:38;100873.34;;;23.73;66.96
41654;BME280;68687;52.030;7.110;2023-06-22T12:24:13;100862.41;;;23.73;67.55
41654;BME280;68687;52.030;7.110;2023-06-22T12:26:44;100857.16;;;23.67;67.34
41654;BME280;68687;52.030;7.110;2023-06-22T12:29:09;100869.75;;;23.68;67.82
41654;BME280;68687;52.030;7.110;2023-06-22T12:31:38;100857.44;;;23.70;68.49
41654;BME280;68687;52.030;7.110;2023-06-22T12:34:04;100865.38;;;23.67;68.62
41654;BME280;68687;52.030;7.110;2023-06-22T12:36:29;100859.06;;;23.66;69.02
41654;BME280;68687;52.030;7.110;2023-06-22T12:38:55;100871.19;;;23.76;69.09
41654;BME280;68687;52.030;7.110;2023-06-22T12:41:20;100871.34;;;23.59;69.43
41654;BME280;68687;52.030;7.110;2023-06-22T12:43:46;100868.34;;;23.60;69.88
41654;BME280;68687;52.030;7.110;2023-06-22T12:46:11;100870.03;;;23.66;70.49
41654;BME280;68687;52.030;7.110;2023-06-22T12:48:39;100870.59;;;23.68;71.39
41654;BME280;68687;52.030;7.110;2023-06-22T12:51:09;100857.41;;;23.60;71.15